Time,TemperatureF,DewpointF,PressureIn,WindDirection,WindDirectionDegrees,WindSpeedMPH,WindSpeedGustMPH,Humidity,HourlyPrecipIn,Conditions,Clouds,dailyrainin,SolarRadiationWatts/m^2,SoftwareType,DateUTC
2013-05-01 00:01:00,38.0,32.0,-100.00,SSW,195,2.0,5.0,79,-99.99,,,0.00,0.000000,,2013-05-01 07:01:00,
2013-05-01 00:11:00,38.0,32.0,-100.00,SSW,195,2.0,5.0,79,-99.99,,,0.00,0.000000,,2013-05-01 07:11:00,
2013-05-01 00:41:00,37.0,31.0,-100.00,SW,227,2.0,4.0,79,-99.99,,,0.00,0.000000,,2013-05-01 07:41:00,
2013-05-01 00:52:00,37.0,31.0,-100.00,SW,227,2.0,4.0,79,-99.99,,,0.00,0.000000,,2013-05-01 07:52:00,
2013-05-01 01:01:00,37.0,31.0,-100.00,SW,227,2.0,4.0,79,-99.99,,,0.00,0.000000,,2013-05-01 08:01:00,
2013-05-01 01:11:00,37.0,31.0,-100.00,SW,227,2.0,4.0,79,-99.99,,,0.00,0.000000,,2013-05-01 08:11:00,
2013-05-01 01:42:00,35.0,31.0,-100.00,SW,217,2.0,4.0,83,-99.99,,,0.00,0.000000,,2013-05-01 08:42:00,
2013-05-01 01:53:00,35.0,31.0,-100.00,SW,217,2.0,4.0,83,-99.99,,,0.00,0.000000,,2013-05-01 08:53:00,
2013-05-01 02:01:00,35.0,31.0,-100.00,SW,217,2.0,4.0,83,-99.99,,,0.00,0.000000,,2013-05-01 09:01:00,
2013-05-01 02:11:00,35.0,31.0,-100.00,SW,217,2.0,4.0,83,-99.99,,,0.00,0.000000,,2013-05-01 09:11:00,
2013-05-01 02:42:00,36.0,30.0,-100.00,SSW,200,3.0,6.0,80,-99.99,,,-99.99,0.000000,,2013-05-01 09:42:00,
2013-05-01 02:53:00,36.0,30.0,-100.00,SSW,200,3.0,6.0,80,-99.99,,,-99.99,0.000000,,2013-05-01 09:53:00,
2013-05-01 03:02:00,36.0,30.0,-100.00,SSW,200,3.0,6.0,80,-99.99,,,-99.99,0.000000,,2013-05-01 10:02:00,
2013-05-01 03:12:00,36.0,30.0,-100.00,SSW,200,3.0,6.0,80,-99.99,,,-99.99,0.000000,,2013-05-01 10:12:00,
2013-05-01 03:42:00,34.0,30.0,-100.00,SSW,197,2.0,4.0,84,-99.99,,,-99.99,0.000000,,2013-05-01 10:42:00,
2013-05-01 03:52:00,34.0,30.0,-100.00,SSW,197,2.0,4.0,84,-99.99,,,-99.99,0.000000,,2013-05-01 10:52:00,
2013-05-01 04:02:00,34.0,30.0,-100.00,SSW,197,2.0,4.0,84,-99.99,,,-99.99,0.000000,,2013-05-01 11:02:00,
2013-05-01 04:11:00,34.0,30.0,-100.00,SSW,197,2.0,4.0,84,-99.99,,,-99.99,0.000000,,2013-05-01 11:11:00,
2013-05-01 04:42:00,33.0,29.0,-100.00,South,189,2.0,6.0,87,-99.99,,,-99.99,0.000000,,2013-05-01 11:42:00,
2013-05-01 04:52:00,33.0,29.0,-100.00,South,189,2.0,6.0,87,-99.99,,,-99.99,0.000000,,2013-05-01 11:52:00,
2013-05-01 05:01:00,33.0,29.0,-100.00,South,189,2.0,6.0,87,-99.99,,,-99.99,0.000000,,2013-05-01 12:01:00,
2013-05-01 05:11:00,33.0,29.0,-100.00,South,189,2.0,6.0,87,-99.99,,,-99.99,0.000000,,2013-05-01 12:11:00,
2013-05-01 06:42:00,31.0,28.0,-100.00,SSW,195,1.0,3.0,88,-99.99,,,0.00,9.650000,,2013-05-01 13:42:00,
2013-05-01 06:52:00,31.0,28.0,-100.00,SSW,195,1.0,3.0,88,-99.99,,,0.00,9.650000,,2013-05-01 13:52:00,
2013-05-01 07:02:00,31.0,28.0,-100.00,SSW,195,1.0,3.0,88,-99.99,,,0.00,9.650000,,2013-05-01 14:02:00,
2013-05-01 07:11:00,31.0,28.0,-100.00,SSW,195,1.0,3.0,88,-99.99,,,0.00,9.650000,,2013-05-01 14:11:00,
2013-05-01 07:41:00,33.0,30.0,-100.00,SE,142,1.0,8.0,85,-99.99,,,-99.99,136.910004,,2013-05-01 14:41:00,
2013-05-01 07:52:00,33.0,30.0,-100.00,SE,142,1.0,8.0,85,-99.99,,,-99.99,136.910004,,2013-05-01 14:52:00,
2013-05-01 08:01:00,33.0,30.0,-100.00,SE,142,1.0,8.0,85,-99.99,,,-99.99,136.910004,,2013-05-01 15:01:00,
2013-05-01 08:11:00,33.0,30.0,-100.00,SE,142,1.0,8.0,85,-99.99,,,-99.99,136.910004,,2013-05-01 15:11:00,
2013-05-01 08:42:00,39.0,30.0,-100.00,SSE,155,2.0,4.0,68,-99.99,,,-99.99,307.170013,,2013-05-01 15:42:00,
2013-05-01 08:53:00,39.0,30.0,-100.00,SSE,155,2.0,4.0,68,-99.99,,,-99.99,307.170013,,2013-05-01 15:53:00,
2013-05-01 09:03:00,39.0,30.0,-100.00,SSE,155,2.0,4.0,68,-99.99,,,-99.99,307.170013,,2013-05-01 16:03:00,
2013-05-01 09:12:00,39.0,30.0,-100.00,SSE,155,2.0,4.0,68,-99.99,,,-99.99,307.170013,,2013-05-01 16:12:00,
2013-05-01 09:42:00,45.0,32.0,-100.00,NNE,29,3.0,7.0,59,-99.99,,,-99.99,500.440002,,2013-05-01 16:42:00,
2013-05-01 09:53:00,45.0,32.0,-100.00,NNE,29,3.0,7.0,59,-99.99,,,-99.99,500.440002,,2013-05-01 16:53:00,
2013-05-01 10:02:00,45.0,32.0,-100.00,NNE,29,3.0,7.0,59,-99.99,,,-99.99,500.440002,,2013-05-01 17:02:00,
2013-05-01 10:12:00,45.0,32.0,-100.00,NNE,29,3.0,7.0,59,-99.99,,,-99.99,500.440002,,2013-05-01 17:12:00,
2013-05-01 10:42:00,49.0,33.0,-100.00,NNE,14,5.0,12.0,54,-99.99,,,0.00,650.020020,,2013-05-01 17:42:00,
2013-05-01 10:52:00,49.0,33.0,-100.00,NNE,14,5.0,12.0,54,-99.99,,,0.00,650.020020,,2013-05-01 17:52:00,
2013-05-01 11:01:00,49.0,33.0,-100.00,NNE,14,5.0,12.0,54,-99.99,,,0.00,650.020020,,2013-05-01 18:01:00,
2013-05-01 11:11:00,49.0,33.0,-100.00,NNE,14,5.0,12.0,54,-99.99,,,0.00,650.020020,,2013-05-01 18:11:00,
2013-05-01 12:42:00,57.0,33.0,-100.00,North,2,5.0,15.0,40,-99.99,,,0.00,861.190002,,2013-05-01 19:42:00,
2013-05-01 12:52:00,57.0,33.0,-100.00,North,2,5.0,15.0,40,-99.99,,,0.00,861.190002,,2013-05-01 19:52:00,
2013-05-01 13:01:00,57.0,33.0,-100.00,North,2,5.0,15.0,40,-99.99,,,0.00,861.190002,,2013-05-01 20:01:00,
2013-05-01 13:11:00,57.0,33.0,-100.00,North,2,5.0,15.0,40,-99.99,,,0.00,861.190002,,2013-05-01 20:11:00,
2013-05-01 13:42:00,60.0,34.0,-100.00,North,359,5.0,14.0,37,-99.99,,,0.00,884.429993,,2013-05-01 20:42:00,
2013-05-01 13:52:00,60.0,34.0,-100.00,North,359,5.0,14.0,37,-99.99,,,0.00,884.429993,,2013-05-01 20:52:00,
2013-05-01 14:01:00,60.0,34.0,-100.00,North,359,5.0,14.0,37,-99.99,,,0.00,884.429993,,2013-05-01 21:01:00,
2013-05-01 14:11:00,60.0,34.0,-100.00,North,359,5.0,14.0,37,-99.99,,,0.00,884.429993,,2013-05-01 21:11:00,
2013-05-01 14:43:00,62.0,34.0,-100.00,North,358,5.0,14.0,35,-99.99,,,0.00,855.380005,,2013-05-01 21:43:00,
2013-05-01 14:53:00,62.0,34.0,-100.00,North,358,5.0,14.0,35,-99.99,,,0.00,855.380005,,2013-05-01 21:53:00,
2013-05-01 15:03:00,62.0,34.0,-100.00,North,358,5.0,14.0,35,-99.99,,,0.00,855.380005,,2013-05-01 22:03:00,
2013-05-01 15:12:00,62.0,34.0,-100.00,North,358,5.0,14.0,35,-99.99,,,0.00,855.380005,,2013-05-01 22:12:00,
2013-05-01 15:42:00,64.0,33.0,-100.00,North,6,5.0,12.0,32,-99.99,,,0.00,773.789978,,2013-05-01 22:42:00,
2013-05-01 15:53:00,64.0,33.0,-100.00,North,6,5.0,12.0,32,-99.99,,,0.00,773.789978,,2013-05-01 22:53:00,
2013-05-01 16:02:00,64.0,33.0,-100.00,North,6,5.0,12.0,32,-99.99,,,0.00,773.789978,,2013-05-01 23:02:00,
2013-05-01 16:11:00,64.0,33.0,-100.00,North,6,5.0,12.0,32,-99.99,,,0.00,773.789978,,2013-05-01 23:11:00,
2013-05-01 16:42:00,64.0,32.0,-100.00,North,357,5.0,14.0,29,-99.99,,,0.00,655.479980,,2013-05-01 23:42:00,
2013-05-01 16:52:00,64.0,32.0,-100.00,North,357,5.0,14.0,29,-99.99,,,0.00,655.479980,,2013-05-01 23:52:00,
2013-05-01 17:01:00,64.0,32.0,-100.00,North,357,5.0,14.0,29,-99.99,,,0.00,655.479980,,2013-05-02 00:01:00,
2013-05-01 17:11:00,64.0,32.0,-100.00,North,357,5.0,14.0,29,-99.99,,,0.00,655.479980,,2013-05-02 00:11:00,
2013-05-01 18:42:00,64.0,30.0,-100.00,North,354,2.0,5.0,28,-99.99,,,0.00,287.299988,,2013-05-02 01:42:00,
2013-05-01 18:52:00,64.0,30.0,-100.00,North,354,2.0,5.0,28,-99.99,,,0.00,287.299988,,2013-05-02 01:52:00,
2013-05-01 19:01:00,64.0,30.0,-100.00,North,354,2.0,5.0,28,-99.99,,,0.00,287.299988,,2013-05-02 02:01:00,
2013-05-01 19:11:00,64.0,30.0,-100.00,North,354,2.0,5.0,28,-99.99,,,0.00,287.299988,,2013-05-02 02:11:00,
2013-05-01 20:01:00,60.0,30.0,-100.00,NNW,343,2.0,5.0,31,-99.99,,,0.00,97.510002,,2013-05-02 03:01:00,
2013-05-01 20:11:00,60.0,30.0,-100.00,NNW,343,2.0,5.0,31,-99.99,,,0.00,97.510002,,2013-05-02 03:11:00,
2013-05-01 20:42:00,54.0,34.0,-100.00,NNW,341,1.0,4.0,46,-99.99,,,0.00,5.110000,,2013-05-02 03:42:00,
2013-05-01 20:53:00,54.0,34.0,-100.00,NNW,341,1.0,4.0,46,-99.99,,,0.00,5.110000,,2013-05-02 03:53:00,
2013-05-01 21:03:00,54.0,34.0,-100.00,NNW,341,1.0,4.0,46,-99.99,,,0.00,5.110000,,2013-05-02 04:03:00,
2013-05-01 21:12:00,54.0,34.0,-100.00,NNW,341,1.0,4.0,46,-99.99,,,0.00,5.110000,,2013-05-02 04:12:00,
2013-05-01 21:42:00,52.0,33.0,-100.00,NW,323,0.0,3.0,49,-99.99,,,0.00,0.000000,,2013-05-02 04:42:00,
2013-05-01 21:52:00,52.0,33.0,-100.00,NW,323,0.0,3.0,49,-99.99,,,0.00,0.000000,,2013-05-02 04:52:00,
2013-05-01 22:02:00,52.0,33.0,-100.00,NW,323,0.0,3.0,49,-99.99,,,0.00,0.000000,,2013-05-02 05:02:00,
2013-05-01 22:11:00,52.0,33.0,-100.00,NW,323,0.0,3.0,49,-99.99,,,0.00,0.000000,,2013-05-02 05:11:00,
2013-05-01 22:42:00,45.0,36.0,-100.00,East,97,0.0,1.0,69,-99.99,,,0.00,0.000000,,2013-05-02 05:42:00,
2013-05-01 22:52:00,45.0,36.0,-100.00,East,97,0.0,1.0,69,-99.99,,,0.00,0.000000,,2013-05-02 05:52:00,
2013-05-01 23:01:00,45.0,36.0,-100.00,East,97,0.0,1.0,69,-99.99,,,0.00,0.000000,,2013-05-02 06:01:00,
2013-05-01 23:12:00,45.0,36.0,-100.00,East,97,0.0,1.0,69,-99.99,,,0.00,0.000000,,2013-05-02 06:12:00,